PWSweather.com
Personal Weather Stations
Station Observations
KNVELKO7
Elko, NV 89801

Elko, NV 89801

Lat: 40.963233, Lon: -115.592836

Elevation: 5230

Station Type: WS-2812

High Low Average
Temperature 49.0°F9.4°F 22.9°F-5.1°F 34.0°F1.1°F
Dew Point 30.6°F-0.8°F 17.0°F-8.3°F 23.9°F-4.5°F
Winds 8.1 mph SW13.0 mph SW Calm Calm 3.7 mph 6.0 mph
Wind Gusts 9.8 mph15.8 mph -- 5.5 mph8.9 mph
Humidity 78% 49% 67%
Pressure 30.19 in1022.40 in 30.10 in1019.30 in -
Precipitation 0.00 in0.00 in - -
Hour Temp Dew Point Humidity Winds Wind Gusts Pressure Precip Precip Rate Daily Precip Total
12:04 AM 31.1°F-0.5°C 26.0°F-3.3°C 81% 6.3 mph NE10.1 kmh NE 8.3 mph13.4 kmh 30.05 in1017.6 mb 0.00 in0.0 mm 0.00 in/hr0.0 mm/hr 0.00 in0.0 mm
12:09 AM 31.1°F-0.5°C 26.0°F-3.3°C 81% 5.7 mph ENE9.2 kmh ENE 8.3 mph13.4 kmh 30.05 in1017.6 mb 0.00 in0.0 mm 0.00 in/hr0.0 mm/hr 0.00 in0.0 mm
12:14 AM 31.0°F-0.6°C 25.8°F-3.4°C 81% 5.1 mph ENE8.2 kmh ENE 7.6 mph12.2 kmh 30.05 in1017.6 mb 0.00 in0.0 mm 0.00 in/hr0.0 mm/hr 0.00 in0.0 mm
12:19 AM 30.8°F-0.7°C 25.7°F-3.5°C 81% 5.2 mph ENE8.4 kmh ENE 6.3 mph10.1 kmh 30.05 in1017.6 mb 0.00 in0.0 mm 0.00 in/hr0.0 mm/hr 0.00 in0.0 mm
12:24 AM 30.6°F-0.8°C 25.5°F-3.6°C 81% 5.4 mph ENE8.7 kmh ENE 6.0 mph9.7 kmh 30.05 in1017.6 mb 0.00 in0.0 mm 0.00 in/hr0.0 mm/hr 0.00 in0.0 mm
12:29 AM 30.4°F-0.9°C 25.6°F-3.6°C 82% 4.3 mph ENE6.9 kmh ENE 6.0 mph9.7 kmh 30.05 in1017.6 mb 0.00 in0.0 mm 0.00 in/hr0.0 mm/hr 0.00 in0.0 mm
12:33 AM 30.4°F-0.9°C 25.6°F-3.6°C 82% 6.0 mph NE9.7 kmh NE 6.9 mph11.1 kmh 30.05 in1017.6 mb 0.00 in0.0 mm 0.00 in/hr0.0 mm/hr 0.00 in0.0 mm
12:38 AM 30.6°F-0.8°C 25.5°F-3.6°C 81% 4.3 mph NE6.9 kmh NE 6.9 mph11.1 kmh 30.05 in1017.6 mb 0.00 in0.0 mm 0.00 in/hr0.0 mm/hr 0.00 in0.0 mm
12:43 AM 30.6°F-0.8°C 25.5°F-3.6°C 81% 4.3 mph NE6.9 kmh NE 5.4 mph8.7 kmh 30.05 in1017.6 mb 0.00 in0.0 mm 0.00 in/hr0.0 mm/hr 0.00 in0.0 mm
12:48 AM 30.4°F-0.9°C 25.3°F-3.7°C 81% 4.0 mph NE6.4 kmh NE 4.7 mph7.6 kmh 30.04 in1017.3 mb 0.00 in0.0 mm 0.00 in/hr0.0 mm/hr 0.00 in0.0 mm
12:53 AM 30.4°F-0.9°C 25.3°F-3.7°C 81% 2.8 mph NE4.5 kmh NE 4.5 mph7.2 kmh 30.04 in1017.3 mb 0.00 in0.0 mm 0.00 in/hr0.0 mm/hr 0.00 in0.0 mm
12:58 AM 30.4°F-0.9°C 25.3°F-3.7°C 81% 3.8 mph E6.1 kmh E 4.3 mph6.9 kmh 30.04 in1017.3 mb 0.00 in0.0 mm 0.00 in/hr0.0 mm/hr 0.00 in0.0 mm
01:04 AM 30.4°F-0.9°C 25.3°F-3.7°C 81% 3.1 mph ENE5.0 kmh ENE 4.0 mph6.4 kmh 30.05 in1017.6 mb 0.00 in0.0 mm 0.00 in/hr0.0 mm/hr 0.00 in0.0 mm
01:09 AM 30.1°F-1.1°C 24.9°F-3.9°C 81% 4.3 mph E6.9 kmh E 4.9 mph7.9 kmh 30.04 in1017.3 mb 0.00 in0.0 mm 0.00 in/hr0.0 mm/hr 0.00 in0.0 mm
01:14 AM 29.9°F-1.2°C 24.8°F-4.0°C 81% 4.1 mph ENE6.6 kmh ENE 7.6 mph12.2 kmh 30.04 in1017.3 mb 0.00 in0.0 mm 0.00 in/hr0.0 mm/hr 0.00 in0.0 mm
01:19 AM 29.9°F-1.2°C 24.8°F-4.0°C 81% 4.0 mph ENE6.4 kmh ENE 7.6 mph12.2 kmh 30.05 in1017.6 mb 0.00 in0.0 mm 0.00 in/hr0.0 mm/hr 0.00 in0.0 mm
01:24 AM 29.5°F-1.4°C 24.7°F-4.1°C 82% 3.2 mph ENE5.1 kmh ENE 4.7 mph7.6 kmh 30.04 in1017.3 mb 0.00 in0.0 mm 0.00 in/hr0.0 mm/hr 0.00 in0.0 mm
01:29 AM 29.3°F-1.5°C 24.5°F-4.2°C 82% 4.8 mph NE7.7 kmh NE 4.9 mph7.9 kmh 30.05 in1017.6 mb 0.00 in0.0 mm 0.00 in/hr0.0 mm/hr 0.00 in0.0 mm
01:34 AM 29.2°F-1.6°C 24.0°F-4.4°C 81% 4.5 mph NE7.2 kmh NE 5.1 mph8.2 kmh 30.05 in1017.6 mb 0.00 in0.0 mm 0.00 in/hr0.0 mm/hr 0.00 in0.0 mm
01:39 AM 29.0°F-1.7°C 23.9°F-4.5°C 81% 4.7 mph 7.6 kmh 5.1 mph8.2 kmh 30.05 in1017.6 mb 0.00 in0.0 mm 0.00 in/hr0.0 mm/hr 0.00 in0.0 mm
01:44 AM 28.6°F-1.9°C 23.5°F-4.7°C 81% 2.0 mph NNE3.2 kmh NNE 4.7 mph7.6 kmh 30.05 in1017.6 mb 0.00 in0.0 mm 0.00 in/hr0.0 mm/hr 0.00 in0.0 mm
01:49 AM 28.3°F-2.1°C 23.4°F-4.8°C 82% 2.7 mph NE4.3 kmh NE 4.7 mph7.6 kmh 30.05 in1017.6 mb 0.00 in0.0 mm 0.00 in/hr0.0 mm/hr 0.00 in0.0 mm
01:54 AM 28.3°F-2.1°C 23.4°F-4.8°C 82% 1.5 mph NE2.4 kmh NE 3.1 mph5.0 kmh 30.05 in1017.6 mb 0.00 in0.0 mm 0.00 in/hr0.0 mm/hr 0.00 in0.0 mm
01:59 AM 28.3°F-2.1°C 23.4°F-4.8°C 82% 4.8 mph NE7.7 kmh NE 4.9 mph7.9 kmh 30.05 in1017.6 mb 0.00 in0.0 mm 0.00 in/hr0.0 mm/hr 0.00 in0.0 mm
02:04 AM 28.3°F-2.1°C 23.4°F-4.8°C 82% 5.7 mph NE9.2 kmh NE 5.8 mph9.3 kmh 30.05 in1017.6 mb 0.00 in0.0 mm 0.00 in/hr0.0 mm/hr 0.00 in0.0 mm
02:09 AM 28.3°F-2.1°C 23.8°F-4.6°C 83% 6.0 mph NE9.7 kmh NE 6.0 mph9.7 kmh 30.05 in1017.6 mb 0.00 in0.0 mm 0.00 in/hr0.0 mm/hr 0.00 in0.0 mm
02:14 AM 28.3°F-2.1°C 23.8°F-4.6°C 83% 6.4 mph NE10.3 kmh NE 6.7 mph10.8 kmh 30.04 in1017.3 mb 0.00 in0.0 mm 0.00 in/hr0.0 mm/hr 0.00 in0.0 mm
02:19 AM 28.4°F-2.0°C 24.0°F-4.4°C 83% 5.7 mph N9.2 kmh N 6.7 mph10.8 kmh 30.05 in1017.6 mb 0.00 in0.0 mm 0.00 in/hr0.0 mm/hr 0.00 in0.0 mm
02:24 AM 28.3°F-2.1°C 23.8°F-4.6°C 83% 6.3 mph N10.1 kmh N 6.7 mph10.8 kmh 30.05 in1017.6 mb 0.00 in0.0 mm 0.00 in/hr0.0 mm/hr 0.00 in0.0 mm
02:29 AM 28.1°F-2.2°C 23.6°F-4.7°C 83% 1.8 mph NE2.9 kmh NE 6.7 mph10.8 kmh 30.05 in1017.6 mb 0.00 in0.0 mm 0.00 in/hr0.0 mm/hr 0.00 in0.0 mm
02:34 AM 27.9°F-2.3°C 23.4°F-4.8°C 83% 4.9 mph NE7.9 kmh NE 5.4 mph8.7 kmh 30.04 in1017.3 mb 0.00 in0.0 mm 0.00 in/hr0.0 mm/hr 0.00 in0.0 mm
02:39 AM 27.9°F-2.3°C 23.4°F-4.8°C 83% 4.8 mph NE7.7 kmh NE 5.4 mph8.7 kmh 30.04 in1017.3 mb 0.00 in0.0 mm 0.00 in/hr0.0 mm/hr 0.00 in0.0 mm
02:44 AM 27.9°F-2.3°C 23.4°F-4.8°C 83% 0.4 mph SSW0.6 kmh SSW 5.4 mph8.7 kmh 30.04 in1017.3 mb 0.00 in0.0 mm 0.00 in/hr0.0 mm/hr 0.00 in0.0 mm
02:49 AM 27.4°F-2.6°C 22.9°F-5.1°C 83% Calm Calm 4.7 mph7.6 kmh 30.04 in1017.3 mb 0.00 in0.0 mm 0.00 in/hr0.0 mm/hr 0.00 in0.0 mm
02:54 AM 26.8°F-2.9°C 22.3°F-5.4°C 83% Calm Calm 0.2 mph0.3 kmh 30.04 in1017.3 mb 0.00 in0.0 mm 0.00 in/hr0.0 mm/hr 0.00 in0.0 mm
02:59 AM 26.5°F-3.1°C 22.0°F-5.6°C 83% 2.9 mph ENE4.7 kmh ENE 3.1 mph5.0 kmh 30.04 in1017.3 mb 0.00 in0.0 mm 0.00 in/hr0.0 mm/hr 0.00 in0.0 mm
03:04 AM 26.6°F-3.0°C 22.2°F-5.4°C 83% 2.3 mph E3.7 kmh E 3.4 mph5.5 kmh 30.04 in1017.3 mb 0.00 in0.0 mm 0.00 in/hr0.0 mm/hr 0.00 in0.0 mm
03:09 AM 26.5°F-3.1°C 22.0°F-5.6°C 83% 2.2 mph E3.5 kmh E 3.4 mph5.5 kmh 30.04 in1017.3 mb 0.00 in0.0 mm 0.00 in/hr0.0 mm/hr 0.00 in0.0 mm
03:14 AM 26.1°F-3.3°C 21.6°F-5.8°C 83% 1.0 mph E1.6 kmh E 3.1 mph5.0 kmh 30.04 in1017.3 mb 0.00 in0.0 mm 0.00 in/hr0.0 mm/hr 0.00 in0.0 mm
03:19 AM 25.9°F-3.4°C 21.2°F-6.0°C 82% 1.3 mph E2.1 kmh E 2.5 mph4.0 kmh 30.04 in1017.3 mb 0.00 in0.0 mm 0.00 in/hr0.0 mm/hr 0.00 in0.0 mm
03:24 AM 25.6°F-3.6°C 20.8°F-6.2°C 82% Calm Calm 2.2 mph3.5 kmh 30.04 in1017.3 mb 0.00 in0.0 mm 0.00 in/hr0.0 mm/hr 0.00 in0.0 mm
03:29 AM 25.4°F-3.7°C 20.7°F-6.3°C 82% 0.2 mph E0.3 kmh E 1.3 mph2.1 kmh 30.04 in1017.3 mb 0.00 in0.0 mm 0.00 in/hr0.0 mm/hr 0.00 in0.0 mm
03:34 AM 25.0°F-3.9°C 20.4°F-6.4°C 82% 0.9 mph ESE1.4 kmh ESE 1.8 mph2.9 kmh 30.03 in1016.9 mb 0.00 in0.0 mm 0.00 in/hr0.0 mm/hr 0.00 in0.0 mm
03:39 AM 24.8°F-4.0°C 20.4°F-6.4°C 83% 4.3 mph E6.9 kmh E 4.5 mph7.2 kmh 30.03 in1016.9 mb 0.00 in0.0 mm 0.00 in/hr0.0 mm/hr 0.00 in0.0 mm
03:44 AM 24.7°F-4.1°C 20.3°F-6.5°C 83% 4.0 mph E6.4 kmh E 4.5 mph7.2 kmh 30.04 in1017.3 mb 0.00 in0.0 mm 0.00 in/hr0.0 mm/hr 0.00 in0.0 mm
03:49 AM 24.5°F-4.2°C 20.1°F-6.6°C 83% 1.8 mph E2.9 kmh E 4.0 mph6.4 kmh 30.04 in1017.3 mb 0.00 in0.0 mm 0.00 in/hr0.0 mm/hr 0.00 in0.0 mm
03:54 AM 24.5°F-4.2°C 20.1°F-6.6°C 83% Calm Calm 3.4 mph5.5 kmh 30.05 in1017.6 mb 0.00 in0.0 mm 0.00 in/hr0.0 mm/hr 0.00 in0.0 mm
04:00 AM 24.1°F-4.4°C 19.7°F-6.8°C 83% 0.3 mph NNW0.5 kmh NNW 4.7 mph7.6 kmh 30.05 in1017.6 mb 0.00 in0.0 mm 0.00 in/hr0.0 mm/hr 0.00 in0.0 mm
04:05 AM 23.8°F-4.6°C 19.4°F-7.0°C 83% Calm Calm 4.7 mph7.6 kmh 30.05 in1017.6 mb 0.00 in0.0 mm 0.00 in/hr0.0 mm/hr 0.00 in0.0 mm
04:10 AM 23.6°F-4.7°C 19.4°F-7.0°C 84% Calm Calm 0.9 mph1.4 kmh 30.05 in1017.6 mb 0.00 in0.0 mm 0.00 in/hr0.0 mm/hr 0.00 in0.0 mm
04:15 AM 23.4°F-4.8°C 19.3°F-7.1°C 84% 0.2 mph NW0.3 kmh NW 0.4 mph0.6 kmh 30.05 in1017.6 mb 0.00 in0.0 mm 0.00 in/hr0.0 mm/hr 0.00 in0.0 mm
04:20 AM 23.4°F-4.8°C 19.3°F-7.1°C 84% Calm Calm 0.2 mph0.3 kmh 30.06 in1017.9 mb 0.00 in0.0 mm 0.00 in/hr0.0 mm/hr 0.00 in0.0 mm
04:25 AM 23.2°F-4.9°C 19.1°F-7.2°C 84% 0.2 mph 0.3 kmh 0.2 mph0.3 kmh 30.06 in1017.9 mb 0.00 in0.0 mm 0.00 in/hr0.0 mm/hr 0.00 in0.0 mm
04:29 AM 23.2°F-4.9°C 19.1°F-7.2°C 84% Calm Calm 0.2 mph0.3 kmh 30.06 in1017.9 mb 0.00 in0.0 mm 0.00 in/hr0.0 mm/hr 0.00 in0.0 mm
04:34 AM 23.2°F-4.9°C 19.1°F-7.2°C 84% 0.2 mph NE0.3 kmh NE 0.2 mph0.3 kmh 30.06 in1017.9 mb 0.00 in0.0 mm 0.00 in/hr0.0 mm/hr 0.00 in0.0 mm
04:39 AM 23.0°F-5.0°C 18.9°F-7.3°C 84% Calm Calm 1.1 mph1.8 kmh 30.05 in1017.6 mb 0.00 in0.0 mm 0.00 in/hr0.0 mm/hr 0.00 in0.0 mm
04:44 AM 22.7°F-5.2°C 18.5°F-7.5°C 84% 0.6 mph E1.0 kmh E 1.1 mph1.8 kmh 30.05 in1017.6 mb 0.00 in0.0 mm 0.00 in/hr0.0 mm/hr 0.00 in0.0 mm
04:49 AM 22.5°F-5.3°C 18.4°F-7.6°C 84% Calm Calm 1.1 mph1.8 kmh 30.05 in1017.6 mb 0.00 in0.0 mm 0.00 in/hr0.0 mm/hr 0.00 in0.0 mm
04:54 AM 22.1°F-5.5°C 18.0°F-7.8°C 84% 2.3 mph N3.7 kmh N 4.3 mph6.9 kmh 30.05 in1017.6 mb 0.00 in0.0 mm 0.00 in/hr0.0 mm/hr 0.00 in0.0 mm
05:00 AM 21.6°F-5.8°C 17.5°F-8.1°C 84% 3.4 mph 5.5 kmh 4.3 mph6.9 kmh 30.06 in1017.9 mb 0.00 in0.0 mm 0.00 in/hr0.0 mm/hr 0.00 in0.0 mm
05:05 AM 21.4°F-5.9°C 17.3°F-8.2°C 84% 2.7 mph NNE4.3 kmh NNE 3.6 mph5.8 kmh 30.06 in1017.9 mb 0.00 in0.0 mm 0.00 in/hr0.0 mm/hr 0.00 in0.0 mm
05:10 AM 21.6°F-5.8°C 17.5°F-8.1°C 84% 1.5 mph NE2.4 kmh NE 3.4 mph5.5 kmh 30.06 in1017.9 mb 0.00 in0.0 mm 0.00 in/hr0.0 mm/hr 0.00 in0.0 mm
05:15 AM 21.6°F-5.8°C 17.7°F-7.9°C 85% Calm Calm 2.7 mph4.3 kmh 30.07 in1018.3 mb 0.00 in0.0 mm 0.00 in/hr0.0 mm/hr 0.00 in0.0 mm
05:20 AM 21.4°F-5.9°C 17.6°F-8.0°C 85% Calm Calm 0.2 mph0.3 kmh 30.07 in1018.3 mb 0.00 in0.0 mm 0.00 in/hr0.0 mm/hr 0.00 in0.0 mm
05:25 AM 21.2°F-6.0°C 17.4°F-8.1°C 85% Calm Calm 0.7 mph1.1 kmh 30.07 in1018.3 mb 0.00 in0.0 mm 0.00 in/hr0.0 mm/hr 0.00 in0.0 mm
05:30 AM 21.1°F-6.1°C 17.2°F-8.2°C 85% Calm Calm 0.7 mph1.1 kmh 30.07 in1018.3 mb 0.00 in0.0 mm 0.00 in/hr0.0 mm/hr 0.00 in0.0 mm
05:35 AM 20.9°F-6.2°C 17.0°F-8.3°C 85% 0.2 mph NNE0.3 kmh NNE 0.2 mph0.3 kmh 30.07 in1018.3 mb 0.00 in0.0 mm 0.00 in/hr0.0 mm/hr 0.00 in0.0 mm
05:40 AM 20.7°F-6.3°C 16.8°F-8.4°C 85% 0.4 mph 0.6 kmh 0.4 mph0.6 kmh 30.07 in1018.3 mb 0.00 in0.0 mm 0.00 in/hr0.0 mm/hr 0.00 in0.0 mm
05:45 AM 20.5°F-6.4°C 16.4°F-8.7°C 84% 3.8 mph 6.1 kmh 4.0 mph6.4 kmh 30.07 in1018.3 mb 0.00 in0.0 mm 0.00 in/hr0.0 mm/hr 0.00 in0.0 mm
05:50 AM 20.3°F-6.5°C 16.2°F-8.8°C 84% 2.2 mph NNE3.5 kmh NNE 4.0 mph6.4 kmh 30.07 in1018.3 mb 0.00 in0.0 mm 0.00 in/hr0.0 mm/hr 0.00 in0.0 mm
05:54 AM 20.2°F-6.6°C 16.0°F-8.9°C 84% 1.7 mph 2.7 kmh 3.8 mph6.1 kmh 30.07 in1018.3 mb 0.00 in0.0 mm 0.00 in/hr0.0 mm/hr 0.00 in0.0 mm
06:00 AM 20.0°F-6.7°C 15.8°F-9.0°C 84% Calm Calm 1.8 mph2.9 kmh 30.07 in1018.3 mb 0.00 in0.0 mm 0.00 in/hr0.0 mm/hr 0.00 in0.0 mm
06:05 AM 19.8°F-6.8°C 15.7°F-9.1°C 84% Calm Calm -- 30.07 in1018.3 mb 0.00 in0.0 mm 0.00 in/hr0.0 mm/hr 0.00 in0.0 mm
06:10 AM 19.6°F-6.9°C 15.5°F-9.2°C 84% Calm Calm -- 30.07 in1018.3 mb 0.00 in0.0 mm 0.00 in/hr0.0 mm/hr 0.00 in0.0 mm
06:15 AM 19.6°F-6.9°C 15.5°F-9.2°C 84% 0.2 mph NE0.3 kmh NE 0.2 mph0.3 kmh 30.08 in1018.6 mb 0.00 in0.0 mm 0.00 in/hr0.0 mm/hr 0.00 in0.0 mm
06:20 AM 19.8°F-6.8°C 15.7°F-9.1°C 84% Calm Calm 0.2 mph0.3 kmh 30.08 in1018.6 mb 0.00 in0.0 mm 0.00 in/hr0.0 mm/hr 0.00 in0.0 mm
06:25 AM 19.8°F-6.8°C 15.7°F-9.1°C 84% Calm Calm -- 30.08 in1018.6 mb 0.00 in0.0 mm 0.00 in/hr0.0 mm/hr 0.00 in0.0 mm
06:30 AM 19.3°F-7.1°C 15.1°F-9.4°C 84% 1.5 mph 2.4 kmh 2.5 mph4.0 kmh 30.08 in1018.6 mb 0.00 in0.0 mm 0.00 in/hr0.0 mm/hr 0.00 in0.0 mm
06:35 AM 19.1°F-7.2°C 14.9°F-9.5°C 84% 0.4 mph 0.6 kmh 2.5 mph4.0 kmh 30.08 in1018.6 mb 0.00 in0.0 mm 0.00 in/hr0.0 mm/hr 0.00 in0.0 mm
06:40 AM 19.1°F-7.2°C 14.9°F-9.5°C 84% 0.2 mph 0.3 kmh 1.8 mph2.9 kmh 30.08 in1018.6 mb 0.00 in0.0 mm 0.00 in/hr0.0 mm/hr 0.00 in0.0 mm
06:45 AM 19.1°F-7.2°C 14.9°F-9.5°C 84% 2.3 mph NNE3.7 kmh NNE 2.7 mph4.3 kmh 30.08 in1018.6 mb 0.00 in0.0 mm 0.00 in/hr0.0 mm/hr 0.00 in0.0 mm
06:50 AM 19.4°F-7.0°C 15.3°F-9.3°C 84% 2.3 mph 3.7 kmh 2.9 mph4.7 kmh 30.08 in1018.6 mb 0.00 in0.0 mm 0.00 in/hr0.0 mm/hr 0.00 in0.0 mm
06:55 AM 19.3°F-7.1°C 15.1°F-9.4°C 84% 2.7 mph 4.3 kmh 5.8 mph9.3 kmh 30.08 in1018.6 mb 0.00 in0.0 mm 0.00 in/hr0.0 mm/hr 0.00 in0.0 mm
07:00 AM 19.1°F-7.2°C 14.9°F-9.5°C 84% 2.5 mph 4.0 kmh 5.8 mph9.3 kmh 30.09 in1019.0 mb 0.00 in0.0 mm 0.00 in/hr0.0 mm/hr 0.00 in0.0 mm
07:05 AM 18.9°F-7.3°C 14.8°F-9.6°C 84% 1.8 mph N2.9 kmh N 3.8 mph6.1 kmh 30.09 in1019.0 mb 0.00 in0.0 mm 0.00 in/hr0.0 mm/hr 0.00 in0.0 mm
07:10 AM 18.7°F-7.4°C 14.9°F-9.5°C 85% 2.1 mph NNW3.4 kmh NNW 2.2 mph3.5 kmh 30.09 in1019.0 mb 0.00 in0.0 mm 0.00 in/hr0.0 mm/hr 0.00 in0.0 mm
07:15 AM 18.4°F-7.6°C 14.5°F-9.7°C 85% 2.5 mph NNW4.0 kmh NNW 2.5 mph4.0 kmh 30.10 in1019.3 mb 0.00 in0.0 mm 0.00 in/hr0.0 mm/hr 0.00 in0.0 mm
07:20 AM 18.4°F-7.6°C 14.5°F-9.7°C 85% 1.7 mph NNW2.7 kmh NNW 2.7 mph4.3 kmh 30.10 in1019.3 mb 0.00 in0.0 mm 0.00 in/hr0.0 mm/hr 0.00 in0.0 mm
07:25 AM 18.7°F-7.4°C 14.9°F-9.5°C 85% 3.8 mph 6.1 kmh 3.8 mph6.1 kmh 30.09 in1019.0 mb 0.00 in0.0 mm 0.00 in/hr0.0 mm/hr 0.00 in0.0 mm
07:30 AM 19.3°F-7.1°C 15.7°F-9.1°C 86% 1.9 mph NE3.1 kmh NE 3.8 mph6.1 kmh 30.09 in1019.0 mb 0.00 in0.0 mm 0.00 in/hr0.0 mm/hr 0.00 in0.0 mm
07:35 AM 19.6°F-6.9°C 16.0°F-8.9°C 86% 1.5 mph 2.4 kmh 3.6 mph5.8 kmh 30.09 in1019.0 mb 0.00 in0.0 mm 0.00 in/hr0.0 mm/hr 0.00 in0.0 mm
07:40 AM 20.2°F-6.6°C 16.6°F-8.6°C 86% 0.4 mph 0.6 kmh 2.0 mph3.2 kmh 30.09 in1019.0 mb 0.00 in0.0 mm 0.00 in/hr0.0 mm/hr 0.00 in0.0 mm
07:45 AM 20.5°F-6.4°C 16.9°F-8.4°C 86% Calm Calm 1.1 mph1.8 kmh 30.09 in1019.0 mb 0.00 in0.0 mm 0.00 in/hr0.0 mm/hr 0.00 in0.0 mm
07:50 AM 20.7°F-6.3°C 17.1°F-8.3°C 86% Calm Calm -- 30.09 in1019.0 mb 0.00 in0.0 mm 0.00 in/hr0.0 mm/hr 0.00 in0.0 mm
07:55 AM 21.1°F-6.1°C 17.7°F-7.9°C 87% Calm Calm 0.2 mph0.3 kmh 30.09 in1019.0 mb 0.00 in0.0 mm 0.00 in/hr0.0 mm/hr 0.00 in0.0 mm
08:01 AM 21.6°F-5.8°C 18.3°F-7.6°C 87% 0.7 mph NNW1.1 kmh NNW 0.9 mph1.4 kmh 30.09 in1019.0 mb 0.00 in0.0 mm 0.00 in/hr0.0 mm/hr 0.00 in0.0 mm
08:06 AM 22.3°F-5.4°C 19.0°F-7.2°C 87% 1.9 mph NW3.1 kmh NW 2.0 mph3.2 kmh 30.10 in1019.3 mb 0.00 in0.0 mm 0.00 in/hr0.0 mm/hr 0.00 in0.0 mm
08:10 AM 22.9°F-5.1°C 19.5°F-6.9°C 87% 0.6 mph NNW1.0 kmh NNW 2.0 mph3.2 kmh 30.10 in1019.3 mb 0.00 in0.0 mm 0.00 in/hr0.0 mm/hr 0.00 in0.0 mm
08:15 AM 23.4°F-4.8°C 20.3°F-6.5°C 88% 0.8 mph NNW1.3 kmh NNW 2.0 mph3.2 kmh 30.10 in1019.3 mb 0.00 in0.0 mm 0.00 in/hr0.0 mm/hr 0.00 in0.0 mm
08:20 AM 24.1°F-4.4°C 21.1°F-6.1°C 88% Calm Calm 1.1 mph1.8 kmh 30.10 in1019.3 mb 0.00 in0.0 mm 0.00 in/hr0.0 mm/hr 0.00 in0.0 mm
08:25 AM 24.7°F-4.1°C 21.6°F-5.8°C 88% Calm Calm 1.1 mph1.8 kmh 30.10 in1019.3 mb 0.00 in0.0 mm 0.00 in/hr0.0 mm/hr 0.00 in0.0 mm
08:30 AM 25.2°F-3.8°C 22.2°F-5.4°C 88% Calm Calm -- 30.11 in1019.6 mb 0.00 in0.0 mm 0.00 in/hr0.0 mm/hr 0.00 in0.0 mm
08:35 AM 25.7°F-3.5°C 22.7°F-5.2°C 88% 1.1 mph SSW1.8 kmh SSW 1.1 mph1.8 kmh 30.11 in1019.6 mb 0.00 in0.0 mm 0.00 in/hr0.0 mm/hr 0.00 in0.0 mm
08:40 AM 26.3°F-3.2°C 23.2°F-4.9°C 88% 0.7 mph SW1.1 kmh SW 1.1 mph1.8 kmh 30.11 in1019.6 mb 0.00 in0.0 mm 0.00 in/hr0.0 mm/hr 0.00 in0.0 mm
08:45 AM 26.8°F-2.9°C 23.8°F-4.6°C 88% 1.3 mph SW2.1 kmh SW 2.9 mph4.7 kmh 30.11 in1019.6 mb 0.00 in0.0 mm 0.00 in/hr0.0 mm/hr 0.00 in0.0 mm
08:50 AM 27.4°F-2.6°C 24.3°F-4.3°C 88% 1.2 mph SSW1.9 kmh SSW 2.9 mph4.7 kmh 30.11 in1019.6 mb 0.00 in0.0 mm 0.00 in/hr0.0 mm/hr 0.00 in0.0 mm
08:55 AM 28.1°F-2.2°C 25.0°F-3.9°C 88% 1.8 mph SW2.9 kmh SW 2.5 mph4.0 kmh 30.11 in1019.6 mb 0.00 in0.0 mm 0.00 in/hr0.0 mm/hr 0.00 in0.0 mm
09:01 AM 28.6°F-1.9°C 25.6°F-3.6°C 88% 1.9 mph S3.1 kmh S 2.5 mph4.0 kmh 30.11 in1019.6 mb 0.00 in0.0 mm 0.00 in/hr0.0 mm/hr 0.00 in0.0 mm
09:06 AM 29.2°F-1.6°C 26.1°F-3.3°C 88% 2.0 mph SSE3.2 kmh SSE 3.6 mph5.8 kmh 30.12 in1020.0 mb 0.00 in0.0 mm 0.00 in/hr0.0 mm/hr 0.00 in0.0 mm
09:11 AM 29.9°F-1.2°C 26.8°F-2.9°C 88% 1.8 mph SE2.9 kmh SE 3.8 mph6.1 kmh 30.11 in1019.6 mb 0.00 in0.0 mm 0.00 in/hr0.0 mm/hr 0.00 in0.0 mm
09:16 AM 30.2°F-1.0°C 27.5°F-2.5°C 89% 1.3 mph SE2.1 kmh SE 3.8 mph6.1 kmh 30.12 in1020.0 mb 0.00 in0.0 mm 0.00 in/hr0.0 mm/hr 0.00 in0.0 mm
09:21 AM 30.6°F-0.8°C 27.6°F-2.4°C 88% 0.7 mph ESE1.1 kmh ESE 2.5 mph4.0 kmh 30.12 in1020.0 mb 0.00 in0.0 mm 0.00 in/hr0.0 mm/hr 0.00 in0.0 mm
09:26 AM 31.3°F-0.4°C 28.3°F-2.1°C 88% 1.5 mph NE2.4 kmh NE 2.5 mph4.0 kmh 30.12 in1020.0 mb 0.00 in0.0 mm 0.00 in/hr0.0 mm/hr 0.00 in0.0 mm
09:31 AM 31.9°F-0.1°C 28.4°F-2.0°C 87% 2.4 mph E3.9 kmh E 3.1 mph5.0 kmh 30.12 in1020.0 mb 0.00 in0.0 mm 0.00 in/hr0.0 mm/hr 0.00 in0.0 mm
09:36 AM 32.4°F0.2°C 29.0°F-1.7°C 87% 2.2 mph ESE3.5 kmh ESE 4.3 mph6.9 kmh 30.13 in1020.3 mb 0.00 in0.0 mm 0.00 in/hr0.0 mm/hr 0.00 in0.0 mm
09:41 AM 33.1°F0.6°C 29.3°F-1.5°C 86% 1.8 mph ESE2.9 kmh ESE 4.5 mph7.2 kmh 30.12 in1020.0 mb 0.00 in0.0 mm 0.00 in/hr0.0 mm/hr 0.00 in0.0 mm
09:45 AM 33.5°F0.8°C 29.7°F-1.3°C 86% 3.2 mph SE5.1 kmh SE 4.5 mph7.2 kmh 30.12 in1020.0 mb 0.00 in0.0 mm 0.00 in/hr0.0 mm/hr 0.00 in0.0 mm
09:50 AM 34.0°F1.1°C 30.2°F-1.0°C 86% Calm Calm 3.8 mph6.1 kmh 30.12 in1020.0 mb 0.00 in0.0 mm 0.00 in/hr0.0 mm/hr 0.00 in0.0 mm
09:55 AM 34.7°F1.5°C 30.6°F-0.8°C 85% 0.6 mph ESE1.0 kmh ESE 3.8 mph6.1 kmh 30.12 in1020.0 mb 0.00 in0.0 mm 0.00 in/hr0.0 mm/hr 0.00 in0.0 mm
10:01 AM 35.5°F1.9°C 31.1°F-0.5°C 84% Calm Calm 1.6 mph2.6 kmh 30.12 in1020.0 mb 0.00 in0.0 mm 0.00 in/hr0.0 mm/hr 0.00 in0.0 mm
10:06 AM 36.0°F2.2°C 31.6°F-0.2°C 84% 0.6 mph ESE1.0 kmh ESE 1.3 mph2.1 kmh 30.12 in1020.0 mb 0.00 in0.0 mm 0.00 in/hr0.0 mm/hr 0.00 in0.0 mm
10:11 AM 36.7°F2.6°C 32.3°F0.2°C 84% 0.6 mph S1.0 kmh S 1.6 mph2.6 kmh 30.12 in1020.0 mb 0.00 in0.0 mm 0.00 in/hr0.0 mm/hr 0.00 in0.0 mm
10:16 AM 37.6°F3.1°C 33.0°F0.6°C 83% 0.2 mph WNW0.3 kmh WNW 1.6 mph2.6 kmh 30.12 in1020.0 mb 0.00 in0.0 mm 0.00 in/hr0.0 mm/hr 0.00 in0.0 mm
10:21 AM 37.8°F3.2°C 32.5°F0.3°C 81% 1.5 mph WSW2.4 kmh WSW 2.9 mph4.7 kmh 30.13 in1020.3 mb 0.00 in0.0 mm 0.00 in/hr0.0 mm/hr 0.00 in0.0 mm
10:26 AM 37.8°F3.2°C 32.2°F0.1°C 80% 1.9 mph W3.1 kmh W 2.9 mph4.7 kmh 30.13 in1020.3 mb 0.00 in0.0 mm 0.00 in/hr0.0 mm/hr 0.00 in0.0 mm
10:31 AM 38.5°F3.6°C 32.9°F0.5°C 80% 3.4 mph WSW5.5 kmh WSW 3.8 mph6.1 kmh 30.13 in1020.3 mb 0.00 in0.0 mm 0.00 in/hr0.0 mm/hr 0.00 in0.0 mm
10:36 AM 39.2°F4.0°C 33.7°F0.9°C 80% 2.8 mph SW4.5 kmh SW 4.3 mph6.9 kmh 30.13 in1020.3 mb 0.00 in0.0 mm 0.00 in/hr0.0 mm/hr 0.00 in0.0 mm
10:41 AM 39.8°F4.3°C 33.9°F1.1°C 79% 3.3 mph WSW5.3 kmh WSW 4.3 mph6.9 kmh 30.13 in1020.3 mb 0.00 in0.0 mm 0.00 in/hr0.0 mm/hr 0.00 in0.0 mm
10:46 AM 40.0°F4.4°C 33.7°F0.9°C 78% 0.4 mph SW0.6 kmh SW 4.0 mph6.4 kmh 30.13 in1020.3 mb 0.00 in0.0 mm 0.00 in/hr0.0 mm/hr 0.00 in0.0 mm
10:51 AM 40.7°F4.8°C 33.9°F1.1°C 77% 2.3 mph SSE3.7 kmh SSE 4.0 mph6.4 kmh 30.12 in1020.0 mb 0.00 in0.0 mm 0.00 in/hr0.0 mm/hr 0.00 in0.0 mm
10:56 AM 41.4°F5.2°C 34.7°F1.5°C 77% 0.7 mph SE1.1 kmh SE 4.0 mph6.4 kmh 30.12 in1020.0 mb 0.00 in0.0 mm 0.00 in/hr0.0 mm/hr 0.00 in0.0 mm
11:01 AM 42.1°F5.6°C 35.4°F1.9°C 77% 3.6 mph SE5.8 kmh SE 5.1 mph8.2 kmh 30.12 in1020.0 mb 0.00 in0.0 mm 0.00 in/hr0.0 mm/hr 0.00 in0.0 mm
11:06 AM 42.8°F6.0°C 35.5°F1.9°C 75% 1.3 mph S2.1 kmh S 5.1 mph8.2 kmh 30.12 in1020.0 mb 0.00 in0.0 mm 0.00 in/hr0.0 mm/hr 0.00 in0.0 mm
11:11 AM 43.4°F6.3°C 35.6°F2.0°C 74% 4.3 mph SSE6.9 kmh SSE 4.5 mph7.2 kmh 30.11 in1019.6 mb 0.00 in0.0 mm 0.00 in/hr0.0 mm/hr 0.00 in0.0 mm
11:16 AM 44.3°F6.8°C 36.2°F2.3°C 73% 0.2 mph S0.3 kmh S 4.5 mph7.2 kmh 30.11 in1019.6 mb 0.00 in0.0 mm 0.00 in/hr0.0 mm/hr 0.00 in0.0 mm
11:21 AM 44.8°F7.1°C 36.6°F2.6°C 73% 4.5 mph SE7.2 kmh SE 4.5 mph7.2 kmh 30.11 in1019.6 mb 0.00 in0.0 mm 0.00 in/hr0.0 mm/hr 0.00 in0.0 mm
11:26 AM 45.4°F7.4°C 36.9°F2.7°C 72% Calm Calm 4.5 mph7.2 kmh 30.11 in1019.6 mb 0.00 in0.0 mm 0.00 in/hr0.0 mm/hr 0.00 in0.0 mm
11:31 AM 45.7°F7.6°C 36.9°F2.7°C 71% 2.7 mph SW4.3 kmh SW 3.1 mph5.0 kmh 30.11 in1019.6 mb 0.00 in0.0 mm 0.00 in/hr0.0 mm/hr 0.00 in0.0 mm
11:36 AM 46.3°F7.9°C 36.7°F2.6°C 69% 0.8 mph SSE1.3 kmh SSE 3.1 mph5.0 kmh 30.11 in1019.6 mb 0.00 in0.0 mm 0.00 in/hr0.0 mm/hr 0.00 in0.0 mm
11:41 AM 46.8°F8.2°C 36.8°F2.7°C 68% 0.2 mph ESE0.3 kmh ESE 3.8 mph6.1 kmh 30.11 in1019.6 mb 0.00 in0.0 mm 0.00 in/hr0.0 mm/hr 0.00 in0.0 mm
11:46 AM 47.0°F8.3°C 36.5°F2.5°C 67% 1.2 mph SSW1.9 kmh SSW 3.8 mph6.1 kmh 30.11 in1019.6 mb 0.00 in0.0 mm 0.00 in/hr0.0 mm/hr 0.00 in0.0 mm
11:51 AM 47.2°F8.4°C 36.0°F2.2°C 65% 0.4 mph ENE0.6 kmh ENE 2.0 mph3.2 kmh 30.11 in1019.6 mb 0.00 in0.0 mm 0.00 in/hr0.0 mm/hr 0.00 in0.0 mm
11:56 AM 47.3°F8.5°C 35.7°F2.1°C 64% 0.2 mph SE0.3 kmh SE 0.4 mph0.6 kmh 30.10 in1019.3 mb 0.00 in0.0 mm 0.00 in/hr0.0 mm/hr 0.00 in0.0 mm
12:02 PM 47.9°F8.8°C 36.3°F2.4°C 64% 1.3 mph SSW2.1 kmh SSW 2.5 mph4.0 kmh 30.10 in1019.3 mb 0.00 in0.0 mm 0.00 in/hr0.0 mm/hr 0.00 in0.0 mm
12:07 PM 48.6°F9.2°C 37.0°F2.8°C 64% 0.4 mph N0.6 kmh N 2.5 mph4.0 kmh 30.10 in1019.3 mb 0.00 in0.0 mm 0.00 in/hr0.0 mm/hr 0.00 in0.0 mm
12:12 PM 49.0°F9.4°C 36.6°F2.6°C 62% 1.6 mph ENE2.6 kmh ENE 2.7 mph4.3 kmh 30.10 in1019.3 mb 0.00 in0.0 mm 0.00 in/hr0.0 mm/hr 0.00 in0.0 mm
12:16 PM 49.3°F9.6°C 37.3°F2.9°C 63% 0.3 mph W0.5 kmh W 2.7 mph4.3 kmh 30.10 in1019.3 mb 0.00 in0.0 mm 0.00 in/hr0.0 mm/hr 0.00 in0.0 mm
12:21 PM 49.3°F9.6°C 36.1°F2.3°C 60% 1.1 mph SE1.8 kmh SE 2.7 mph4.3 kmh 30.10 in1019.3 mb 0.00 in0.0 mm 0.00 in/hr0.0 mm/hr 0.00 in0.0 mm
12:26 PM 49.9°F9.9°C 36.5°F2.5°C 60% 2.5 mph SE4.0 kmh SE 2.7 mph4.3 kmh 30.10 in1019.3 mb 0.00 in0.0 mm 0.00 in/hr0.0 mm/hr 0.00 in0.0 mm
12:31 PM 50.6°F10.3°C 37.2°F2.9°C 60% 0.9 mph ESE1.4 kmh ESE 2.5 mph4.0 kmh 30.10 in1019.3 mb 0.00 in0.0 mm 0.00 in/hr0.0 mm/hr 0.00 in0.0 mm
12:36 PM 51.1°F10.6°C 36.8°F2.7°C 58% 2.7 mph WSW4.3 kmh WSW 2.7 mph4.3 kmh 30.10 in1019.3 mb 0.00 in0.0 mm 0.00 in/hr0.0 mm/hr 0.00 in0.0 mm
12:41 PM 51.1°F10.6°C 37.3°F2.9°C 59% 0.9 mph 1.4 kmh 2.7 mph4.3 kmh 30.09 in1019.0 mb 0.00 in0.0 mm 0.00 in/hr0.0 mm/hr 0.00 in0.0 mm
12:46 PM 50.8°F10.4°C 35.6°F2.0°C 56% 1.0 mph NW1.6 kmh NW 2.2 mph3.5 kmh 30.10 in1019.3 mb 0.00 in0.0 mm 0.00 in/hr0.0 mm/hr 0.00 in0.0 mm
12:51 PM 50.6°F10.3°C 35.8°F2.1°C 57% 1.3 mph NW2.1 kmh NW 2.2 mph3.5 kmh 30.09 in1019.0 mb 0.00 in0.0 mm 0.00 in/hr0.0 mm/hr 0.00 in0.0 mm
12:56 PM 50.6°F10.3°C 34.9°F1.6°C 55% 3.4 mph SE5.5 kmh SE 4.7 mph7.6 kmh 30.09 in1019.0 mb 0.00 in0.0 mm 0.00 in/hr0.0 mm/hr 0.00 in0.0 mm
01:02 PM 51.1°F10.6°C 35.5°F1.9°C 55% 3.6 mph SE5.8 kmh SE 6.5 mph10.5 kmh 30.09 in1019.0 mb 0.00 in0.0 mm 0.00 in/hr0.0 mm/hr 0.00 in0.0 mm
01:07 PM 51.8°F11.0°C 35.6°F2.0°C 54% Calm Calm 6.5 mph10.5 kmh 30.08 in1018.6 mb 0.00 in0.0 mm 0.00 in/hr0.0 mm/hr 0.00 in0.0 mm
01:12 PM 51.8°F11.0°C 35.6°F2.0°C 54% 2.3 mph ENE3.7 kmh ENE 6.0 mph9.7 kmh 30.08 in1018.6 mb 0.00 in0.0 mm 0.00 in/hr0.0 mm/hr 0.00 in0.0 mm
01:17 PM 51.5°F10.8°C 34.8°F1.6°C 53% 1.1 mph ESE1.8 kmh ESE 6.0 mph9.7 kmh 30.08 in1018.6 mb 0.00 in0.0 mm 0.00 in/hr0.0 mm/hr 0.00 in0.0 mm
01:22 PM 51.8°F11.0°C 34.7°F1.5°C 52% 1.5 mph S2.4 kmh S 5.6 mph9.0 kmh 30.08 in1018.6 mb 0.00 in0.0 mm 0.00 in/hr0.0 mm/hr 0.00 in0.0 mm
01:27 PM 52.6°F11.4°C 35.4°F1.9°C 52% 1.9 mph ENE3.1 kmh ENE 5.6 mph9.0 kmh 30.09 in1019.0 mb 0.00 in0.0 mm 0.00 in/hr0.0 mm/hr 0.00 in0.0 mm
01:32 PM 52.9°F11.6°C 34.8°F1.6°C 50% 1.4 mph SE2.3 kmh SE 2.7 mph4.3 kmh 30.09 in1019.0 mb 0.00 in0.0 mm 0.00 in/hr0.0 mm/hr 0.00 in0.0 mm
01:37 PM 53.6°F12.0°C 35.5°F1.9°C 50% 0.6 mph S1.0 kmh S 2.9 mph4.7 kmh 30.08 in1018.6 mb 0.00 in0.0 mm 0.00 in/hr0.0 mm/hr 0.00 in0.0 mm
01:42 PM 53.8°F12.1°C 36.1°F2.3°C 51% 2.5 mph SE4.0 kmh SE 4.3 mph6.9 kmh 30.08 in1018.6 mb 0.00 in0.0 mm 0.00 in/hr0.0 mm/hr 0.00 in0.0 mm
01:47 PM 54.4°F12.4°C 35.6°F2.0°C 49% 3.4 mph ESE5.5 kmh ESE 4.5 mph7.2 kmh 30.08 in1018.6 mb 0.00 in0.0 mm 0.00 in/hr0.0 mm/hr 0.00 in0.0 mm
01:52 PM 54.4°F12.4°C 35.0°F1.7°C 48% 3.4 mph SE5.5 kmh SE 4.5 mph7.2 kmh 30.08 in1018.6 mb 0.00 in0.0 mm 0.00 in/hr0.0 mm/hr 0.00 in0.0 mm
01:56 PM 54.5°F12.5°C 35.7°F2.1°C 49% 1.5 mph ESE2.4 kmh ESE 3.4 mph5.5 kmh 30.08 in1018.6 mb 0.00 in0.0 mm 0.00 in/hr0.0 mm/hr 0.00 in0.0 mm
02:02 PM 54.7°F12.6°C 35.3°F1.8°C 48% 3.0 mph SSE4.8 kmh SSE 4.7 mph7.6 kmh 30.08 in1018.6 mb 0.00 in0.0 mm 0.00 in/hr0.0 mm/hr 0.00 in0.0 mm
02:07 PM 54.9°F12.7°C 34.9°F1.6°C 47% 2.2 mph S3.5 kmh S 4.7 mph7.6 kmh 30.08 in1018.6 mb 0.00 in0.0 mm 0.00 in/hr0.0 mm/hr 0.00 in0.0 mm
02:12 PM 54.9°F12.7°C 35.5°F1.9°C 48% 1.1 mph NW1.8 kmh NW 3.4 mph5.5 kmh 30.08 in1018.6 mb 0.00 in0.0 mm 0.00 in/hr0.0 mm/hr 0.00 in0.0 mm
02:17 PM 54.5°F12.5°C 34.6°F1.4°C 47% 0.6 mph NW1.0 kmh NW 1.1 mph1.8 kmh 30.08 in1018.6 mb 0.00 in0.0 mm 0.00 in/hr0.0 mm/hr 0.00 in0.0 mm
02:22 PM 54.5°F12.5°C 34.6°F1.4°C 47% 1.3 mph S2.1 kmh S 2.0 mph3.2 kmh 30.08 in1018.6 mb 0.00 in0.0 mm 0.00 in/hr0.0 mm/hr 0.00 in0.0 mm
02:27 PM 54.7°F12.6°C 35.3°F1.8°C 48% 3.5 mph WSW5.6 kmh WSW 5.1 mph8.2 kmh 30.09 in1019.0 mb 0.00 in0.0 mm 0.00 in/hr0.0 mm/hr 0.00 in0.0 mm
02:32 PM 53.8°F12.1°C 33.4°F0.8°C 46% 5.9 mph WSW9.5 kmh WSW 10.1 mph16.3 kmh 30.08 in1018.6 mb 0.00 in0.0 mm 0.00 in/hr0.0 mm/hr 0.00 in0.0 mm
02:37 PM 52.7°F11.5°C 32.4°F0.2°C 46% 7.4 mph WSW11.9 kmh WSW 10.1 mph16.3 kmh 30.09 in1019.0 mb 0.00 in0.0 mm 0.00 in/hr0.0 mm/hr 0.00 in0.0 mm
02:42 PM 52.6°F11.4°C 33.4°F0.8°C 48% 3.8 mph SSW6.1 kmh SSW 8.5 mph13.7 kmh 30.09 in1019.0 mb 0.00 in0.0 mm 0.00 in/hr0.0 mm/hr 0.00 in0.0 mm
02:47 PM 52.2°F11.2°C 32.5°F0.3°C 47% 9.3 mph SW15.0 kmh SW 9.8 mph15.8 kmh 30.09 in1019.0 mb 0.00 in0.0 mm 0.00 in/hr0.0 mm/hr 0.00 in0.0 mm
02:52 PM 51.8°F11.0°C 31.6°F-0.2°C 46% 7.6 mph SW12.2 kmh SW 9.8 mph15.8 kmh 30.09 in1019.0 mb 0.00 in0.0 mm 0.00 in/hr0.0 mm/hr 0.00 in0.0 mm
02:57 PM 51.7°F10.9°C 32.1°F0.1°C 47% 7.6 mph SW12.2 kmh SW 9.4 mph15.1 kmh 30.09 in1019.0 mb 0.00 in0.0 mm 0.00 in/hr0.0 mm/hr 0.00 in0.0 mm
03:02 PM 51.5°F10.8°C 32.4°F0.2°C 48% 6.8 mph SW10.9 kmh SW 9.4 mph15.1 kmh 30.09 in1019.0 mb 0.00 in0.0 mm 0.00 in/hr0.0 mm/hr 0.00 in0.0 mm
03:07 PM 51.1°F10.6°C 32.0°F0.0°C 48% 7.1 mph SW11.4 kmh SW 7.8 mph12.6 kmh 30.09 in1019.0 mb 0.00 in0.0 mm 0.00 in/hr0.0 mm/hr 0.00 in0.0 mm
03:12 PM 50.9°F10.5°C 31.3°F-0.4°C 47% 8.1 mph SW13.0 kmh SW 8.5 mph13.7 kmh 30.09 in1019.0 mb 0.00 in0.0 mm 0.00 in/hr0.0 mm/hr 0.00 in0.0 mm
03:17 PM 50.8°F10.4°C 31.2°F-0.4°C 47% 7.8 mph SW12.6 kmh SW 8.7 mph14.0 kmh 30.09 in1019.0 mb 0.00 in0.0 mm 0.00 in/hr0.0 mm/hr 0.00 in0.0 mm
03:22 PM 50.8°F10.4°C 31.2°F-0.4°C 47% 6.3 mph SW10.1 kmh SW 8.7 mph14.0 kmh 30.09 in1019.0 mb 0.00 in0.0 mm 0.00 in/hr0.0 mm/hr 0.00 in0.0 mm
03:27 PM 50.8°F10.4°C 31.2°F-0.4°C 47% 5.6 mph SW9.0 kmh SW 7.8 mph12.6 kmh 30.09 in1019.0 mb 0.00 in0.0 mm 0.00 in/hr0.0 mm/hr 0.00 in0.0 mm
03:32 PM 50.6°F10.3°C 31.1°F-0.5°C 47% 7.8 mph SSW12.6 kmh SSW 8.7 mph14.0 kmh 30.10 in1019.3 mb 0.00 in0.0 mm 0.00 in/hr0.0 mm/hr 0.00 in0.0 mm
03:37 PM 50.6°F10.3°C 31.6°F-0.2°C 48% 7.3 mph SW11.7 kmh SW 8.7 mph14.0 kmh 30.10 in1019.3 mb 0.00 in0.0 mm 0.00 in/hr0.0 mm/hr 0.00 in0.0 mm
03:42 PM 50.0°F10.0°C 31.2°F-0.4°C 48% 5.9 mph SW9.5 kmh SW 7.6 mph12.2 kmh 30.10 in1019.3 mb 0.00 in0.0 mm 0.00 in/hr0.0 mm/hr 0.00 in0.0 mm
03:47 PM 49.9°F9.9°C 31.5°F-0.3°C 49% 8.1 mph SW13.0 kmh SW 9.2 mph14.8 kmh 30.10 in1019.3 mb 0.00 in0.0 mm 0.00 in/hr0.0 mm/hr 0.00 in0.0 mm
03:52 PM 49.5°F9.7°C 31.2°F-0.4°C 49% 5.4 mph SW8.7 kmh SW 9.2 mph14.8 kmh 30.10 in1019.3 mb 0.00 in0.0 mm 0.00 in/hr0.0 mm/hr 0.00 in0.0 mm
03:57 PM 49.1°F9.5°C 30.8°F-0.7°C 49% 6.4 mph SW10.3 kmh SW 9.2 mph14.8 kmh 30.10 in1019.3 mb 0.00 in0.0 mm 0.00 in/hr0.0 mm/hr 0.00 in0.0 mm